Standon, United Kingdom
Current Conditions -  °F | °C
As of 11:50 AM on Friday 19 Dec 2014 (Local Time) from EGOS Reporting Station
Broken Clouds Broken Clouds  
Wind Chill:   Ceiling: 3900
Heat Index:   Visibility: 6mi
Dew Point:   Wind: 13mph
Humidity: 71%   Direction: 270°W
Pressure: 29.94"   Gusts: NA
Location:  52.92°N, 2.28°W
Report Text: EGOS 191150Z AUTO 27011KT 9999 SCT030/// BKN039/// 08/03 Q1014 RERA
Loading
Personal Weather Stations






























Interactive Weather Map New forecast layout! Learn more

10-Day Weather Forecast

Advertisements
Track Severe Weather on mobile